Time;durP1;ratioP1;P1;durP2;ratioP2;P2;SDS_P1;SDS_P2;PMS_P1;PMS_P2;Temp;Humidity;BMP_temperature;BMP_pressure;BME280_temperature;BME280_humidity;BME280_pressure;Samples;Min_cycle;Max_cycle;Signal;HPM_P1;HPM_P2
2023/03/19 00:01:45;;;;;;;7.65;5.10;;;10.80;70.60;;;;;;4981500;28;20391;-63
2023/03/19 00:04:11;;;;;;;8.68;5.18;;;10.80;70.60;;;;;;4979327;28;20097;-63
2023/03/19 00:06:37;;;;;;;10.30;5.22;;;10.80;70.60;;;;;;4979338;28;20105;-63
2023/03/19 00:09:03;;;;;;;8.63;5.18;;;10.80;70.40;;;;;;4980418;28;20042;-61
2023/03/19 00:11:28;;;;;;;10.15;5.82;;;10.80;70.50;;;;;;4979832;28;20035;-62
2023/03/19 00:13:54;;;;;;;8.90;5.35;;;10.80;70.60;;;;;;4979696;28;20054;-63
2023/03/19 00:16:20;;;;;;;8.43;5.50;;;10.90;70.50;;;;;;4980180;28;20042;-60
2023/03/19 00:18:46;;;;;;;8.32;5.35;;;10.90;70.40;;;;;;4996483;28;20039;-62
2023/03/19 00:21:12;;;;;;;7.15;5.07;;;10.90;70.40;;;;;;4982306;28;20187;-63
2023/03/19 00:23:38;;;;;;;7.13;5.32;;;10.90;70.40;;;;;;4979096;28;20050;-62
2023/03/19 00:26:03;;;;;;;9.82;5.38;;;10.90;70.30;;;;;;4981030;28;20026;-62
2023/03/19 00:28:29;;;;;;;8.63;6.05;;;11.00;70.40;;;;;;4982583;28;20046;-62
2023/03/19 00:30:55;;;;;;;9.00;5.90;;;11.00;70.60;;;;;;4982081;28;20351;-62
2023/03/19 00:33:21;;;;;;;10.65;6.65;;;11.00;70.50;;;;;;4986551;28;20154;-63
2023/03/19 00:35:47;;;;;;;9.23;6.38;;;11.00;70.60;;;;;;4988255;28;20042;-62
2023/03/19 00:38:13;;;;;;;11.75;6.28;;;11.00;70.70;;;;;;4985421;28;20104;-62
2023/03/19 00:40:39;;;;;;;10.90;6.38;;;11.00;70.60;;;;;;4985685;28;20109;-62
2023/03/19 00:43:05;;;;;;;11.75;6.55;;;11.00;70.60;;;;;;4985226;28;20558;-62
2023/03/19 00:45:30;;;;;;;9.40;6.05;;;11.00;70.60;;;;;;4985330;28;20061;-61
2023/03/19 00:47:56;;;;;;;10.90;5.97;;;11.00;70.80;;;;;;4985088;28;20116;-60
2023/03/19 00:50:24;;;;;;;11.85;6.25;;;11.00;70.90;;;;;;4985377;28;20030;-59
2023/03/19 00:52:51;;;;;;;11.70;6.22;;;11.00;71.10;;;;;;4983769;28;20050;-63
2023/03/19 00:55:17;;;;;;;10.27;5.93;;;11.00;71.10;;;;;;4985144;28;20037;-62
2023/03/19 00:57:43;;;;;;;9.40;5.85;;;11.00;71.20;;;;;;4988306;28;20629;-62
2023/03/19 01:00:09;;;;;;;10.50;5.88;;;11.00;71.30;;;;;;4985901;28;20046;-61
2023/03/19 01:02:35;;;;;;;8.68;5.65;;;10.90;72.00;;;;;;4986329;28;20141;-62
2023/03/19 01:05:01;;;;;;;9.07;5.60;;;11.00;71.20;;;;;;4987598;28;20125;-61
2023/03/19 01:07:26;;;;;;;8.05;5.75;;;10.90;71.20;;;;;;4986279;28;20049;-60
2023/03/19 01:09:52;;;;;;;11.65;5.57;;;10.90;71.20;;;;;;4984636;28;20042;-61
2023/03/19 01:12:18;;;;;;;10.10;5.93;;;10.90;71.30;;;;;;4981781;28;20026;-62
2023/03/19 01:14:44;;;;;;;7.13;5.70;;;10.90;71.40;;;;;;4982758;28;20030;-63
2023/03/19 01:17:10;;;;;;;9.88;5.57;;;10.90;71.60;;;;;;4985301;28;20042;-62
2023/03/19 01:19:35;;;;;;;9.52;5.40;;;10.90;71.70;;;;;;4986154;28;20065;-61
2023/03/19 01:22:01;;;;;;;10.32;5.78;;;10.90;71.60;;;;;;4982946;28;20093;-62
2023/03/19 01:24:30;;;;;;;9.90;5.50;;;10.90;71.70;;;;;;4982479;28;20027;-63
2023/03/19 01:26:56;;;;;;;8.80;5.45;;;10.90;71.80;;;;;;4983405;28;20042;-63
2023/03/19 01:29:22;;;;;;;7.18;4.90;;;10.90;72.50;;;;;;4980948;28;20039;-61
2023/03/19 01:31:47;;;;;;;6.80;4.60;;;11.00;71.70;;;;;;4988840;28;20462;-63
2023/03/19 01:34:13;;;;;;;7.88;4.65;;;11.00;71.70;;;;;;4988684;28;20041;-62
2023/03/19 01:36:38;;;;;;;8.10;4.97;;;11.00;71.60;;;;;;4986104;28;20034;-63
2023/03/19 01:39:04;;;;;;;6.45;4.60;;;11.00;71.60;;;;;;4982811;28;20281;-62
2023/03/19 01:41:30;;;;;;;9.85;5.00;;;11.00;71.60;;;;;;4984083;28;20058;-62
2023/03/19 01:43:55;;;;;;;5.95;4.45;;;11.00;71.60;;;;;;4981377;28;20450;-61
2023/03/19 01:46:35;;;;;;;6.03;4.40;;;11.00;71.60;;;;;;4983462;28;20042;-60
2023/03/19 01:49:05;;;;;;;7.00;4.95;;;11.00;71.70;;;;;;4981435;28;20042;-63
2023/03/19 01:51:43;;;;;;;9.38;5.07;;;11.00;71.40;;;;;;4982904;28;20195;-63
2023/03/19 01:54:14;;;;;;;9.38;4.65;;;11.10;71.80;;;;;;4984313;28;20035;-63
2023/03/19 01:56:42;;;;;;;7.55;4.57;;;11.10;71.50;;;;;;4985191;28;20413;-63
2023/03/19 01:59:25;;;;;;;5.95;4.75;;;11.10;71.30;;;;;;4983725;28;20045;-63
2023/03/19 02:01:57;;;;;;;8.00;4.55;;;11.10;72.10;;;;;;4985526;28;20383;-63
2023/03/19 02:04:25;;;;;;;7.10;5.00;;;11.20;72.50;;;;;;4978524;28;20031;-62
2023/03/19 02:06:53;;;;;;;7.00;4.57;;;11.20;71.40;;;;;;4983052;28;20177;-63
2023/03/19 02:09:19;;;;;;;6.68;4.50;;;11.10;71.10;;;;;;4983404;28;20034;-62
2023/03/19 02:11:45;;;;;;;6.93;4.30;;;11.20;71.30;;;;;;4982243;28;20083;-61
2023/03/19 02:14:12;;;;;;;7.30;4.35;;;11.20;71.30;;;;;;4980087;28;20042;-63
2023/03/19 02:16:38;;;;;;;6.10;4.20;;;11.30;71.40;;;;;;4984872;28;20453;-61
2023/03/19 02:19:06;;;;;;;8.07;4.50;;;11.20;71.40;;;;;;4984092;28;20038;-62
2023/03/19 02:21:32;;;;;;;7.45;4.40;;;11.20;71.30;;;;;;4982791;28;20030;-62
2023/03/19 02:24:12;;;;;;;5.72;4.40;;;11.20;71.40;;;;;;4983750;28;20153;-62
2023/03/19 02:26:40;;;;;;;7.30;4.20;;;11.20;71.80;;;;;;4980559;28;20077;-60
2023/03/19 02:29:06;;;;;;;6.90;3.97;;;11.20;71.30;;;;;;4981912;28;20080;-62
2023/03/19 02:31:32;;;;;;;6.32;4.18;;;11.20;71.40;;;;;;4985337;28;20068;-61
2023/03/19 02:33:59;;;;;;;5.95;4.20;;;11.20;71.30;;;;;;4984769;28;20491;-60
2023/03/19 02:36:30;;;;;;;7.20;4.65;;;11.20;71.40;;;;;;4986337;28;20030;-63
2023/03/19 02:39:00;;;;;;;7.97;4.53;;;11.20;71.60;;;;;;4979545;28;20037;-62
2023/03/19 02:41:28;;;;;;;8.75;5.13;;;11.20;71.40;;;;;;4984143;28;20045;-62
2023/03/19 02:43:54;;;;;;;6.78;4.57;;;11.20;71.30;;;;;;4980702;28;20041;-61
2023/03/19 02:46:20;;;;;;;7.90;4.25;;;11.30;71.40;;;;;;4982721;28;20070;-61
2023/03/19 02:48:45;;;;;;;6.43;4.45;;;11.30;71.30;;;;;;4982695;28;20592;-62
2023/03/19 02:51:12;;;;;;;6.93;4.72;;;11.30;71.40;;;;;;4982490;28;20038;-60
2023/03/19 02:53:38;;;;;;;7.55;5.07;;;11.30;71.40;;;;;;4980605;28;20039;-61
2023/03/19 02:56:03;;;;;;;4.65;3.08;;;11.40;71.40;;;;;;4981038;28;20057;-61
2023/03/19 02:58:29;;;;;;;4.35;2.20;;;11.30;71.00;;;;;;4981120;28;20061;-62
2023/03/19 03:00:55;;;;;;;5.25;2.08;;;11.30;70.00;;;;;;4980528;28;20045;-62
2023/03/19 03:03:20;;;;;;;3.58;2.30;;;11.30;69.50;;;;;;4982816;28;20046;-62
2023/03/19 03:05:46;;;;;;;4.43;2.50;;;11.40;69.30;;;;;;4980176;28;20131;-62
2023/03/19 03:08:11;;;;;;;4.15;2.30;;;11.40;69.00;;;;;;4981119;28;20046;-62
2023/03/19 03:10:37;;;;;;;3.42;2.35;;;11.50;68.60;;;;;;4982415;28;20058;-61
2023/03/19 03:13:04;;;;;;;4.05;2.47;;;11.50;68.20;;;;;;4979296;28;20073;-62
2023/03/19 03:15:29;;;;;;;4.65;2.50;;;11.60;68.10;;;;;;4979303;28;20109;-62
2023/03/19 03:17:55;;;;;;;3.97;2.38;;;11.60;67.80;;;;;;4980883;28;20410;-62
2023/03/19 03:20:21;;;;;;;4.10;2.63;;;11.70;68.00;;;;;;4981800;28;20504;-61
2023/03/19 03:22:47;;;;;;;4.00;2.30;;;11.60;67.80;;;;;;4978545;28;20078;-62
2023/03/19 03:25:13;;;;;;;4.05;2.58;;;11.70;67.90;;;;;;4980407;28;20746;-60
2023/03/19 03:27:39;;;;;;;4.25;2.20;;;11.70;68.00;;;;;;4980939;28;20042;-60
2023/03/19 03:30:07;;;;;;;4.25;2.45;;;11.80;68.10;;;;;;4979068;28;20049;-62
2023/03/19 03:32:33;;;;;;;4.10;2.40;;;11.80;68.20;;;;;;4980720;28;20035;-63
2023/03/19 03:34:59;;;;;;;3.97;2.15;;;11.80;68.30;;;;;;4985996;28;20050;-62
2023/03/19 03:37:25;;;;;;;2.30;2.10;;;11.80;68.50;;;;;;4983798;28;20497;-62
2023/03/19 03:39:52;;;;;;;4.47;2.40;;;11.80;68.80;;;;;;4984290;28;20177;-63
2023/03/19 03:42:18;;;;;;;3.17;1.95;;;11.80;69.10;;;;;;4985522;28;20057;-63
2023/03/19 03:44:43;;;;;;;4.28;2.28;;;11.80;69.50;;;;;;4983980;28;20509;-62
2023/03/19 03:47:09;;;;;;;2.17;1.98;;;11.80;70.00;;;;;;4984126;28;20046;-62
2023/03/19 03:49:35;;;;;;;3.05;2.22;;;11.90;70.70;;;;;;4984335;28;20153;-61
2023/03/19 03:52:00;;;;;;;3.55;2.40;;;11.90;71.20;;;;;;4984765;28;20056;-62
2023/03/19 03:54:26;;;;;;;4.20;2.38;;;11.80;71.60;;;;;;4980317;28;20596;-62
2023/03/19 03:56:51;;;;;;;3.13;2.05;;;11.80;71.80;;;;;;4981654;28;20027;-63
2023/03/19 03:59:17;;;;;;;2.70;2.15;;;11.70;71.70;;;;;;4981592;28;20034;-63
2023/03/19 04:01:42;;;;;;;3.08;2.22;;;11.80;72.10;;;;;;4982729;28;20124;-60
2023/03/19 04:04:08;;;;;;;3.42;2.33;;;11.70;72.00;;;;;;4978098;28;20046;-62
2023/03/19 04:06:34;;;;;;;3.53;2.00;;;11.70;72.40;;;;;;4980882;28;20037;-62
2023/03/19 04:09:00;;;;;;;3.08;2.33;;;11.70;72.50;;;;;;4985693;28;20065;-62
2023/03/19 04:11:26;;;;;;;2.53;2.10;;;11.70;72.60;;;;;;4981428;28;20022;-60
2023/03/19 04:13:55;;;;;;;3.45;2.40;;;11.70;72.80;;;;;;4985412;28;20041;-61
2023/03/19 04:16:21;;;;;;;3.28;2.10;;;11.70;72.90;;;;;;4982099;28;20030;-62
2023/03/19 04:18:46;;;;;;;3.10;2.22;;;11.70;72.70;;;;;;4982374;28;20035;-61
2023/03/19 04:21:12;;;;;;;2.75;2.33;;;11.70;72.90;;;;;;4984701;28;20074;-62
2023/03/19 04:23:38;;;;;;;2.65;2.10;;;11.70;73.20;;;;;;4985436;28;20037;-62
2023/03/19 04:26:06;;;;;;;3.33;2.45;;;11.70;73.10;;;;;;4984487;28;20054;-61
2023/03/19 04:28:32;;;;;;;3.40;2.28;;;11.70;73.20;;;;;;4982405;28;20058;-62
2023/03/19 04:31:03;;;;;;;3.22;2.40;;;11.70;73.20;;;;;;4984910;28;20034;-62
2023/03/19 04:33:29;;;;;;;4.53;2.40;;;11.70;73.50;;;;;;4987059;28;20118;-61
2023/03/19 04:35:55;;;;;;;5.57;2.40;;;11.70;73.20;;;;;;4985775;28;20134;-62
2023/03/19 04:38:21;;;;;;;6.50;2.60;;;11.70;73.30;;;;;;4982019;28;20543;-63
2023/03/19 04:40:47;;;;;;;4.07;2.65;;;11.60;73.40;;;;;;4983048;28;20046;-62
2023/03/19 04:43:13;;;;;;;3.35;2.58;;;11.60;73.50;;;;;;4986157;28;20048;-60
2023/03/19 04:45:39;;;;;;;3.72;2.58;;;11.60;73.70;;;;;;4982643;28;20042;-62
2023/03/19 04:48:05;;;;;;;4.45;2.80;;;11.60;73.90;;;;;;4983983;28;20043;-60
2023/03/19 04:50:31;;;;;;;3.17;2.38;;;11.60;74.10;;;;;;4985917;28;20045;-62
2023/03/19 04:52:57;;;;;;;3.25;2.67;;;11.60;74.40;;;;;;4983910;28;20342;-64
2023/03/19 04:55:23;;;;;;;4.45;2.63;;;11.60;74.60;;;;;;4985680;28;20038;-62
2023/03/19 04:57:48;;;;;;;2.80;2.53;;;11.60;74.70;;;;;;4985589;28;20282;-63
2023/03/19 05:00:15;;;;;;;3.80;2.50;;;11.60;74.70;;;;;;4984249;28;20124;-61
2023/03/19 05:02:41;;;;;;;3.40;2.60;;;11.60;74.70;;;;;;4982752;28;20035;-62
2023/03/19 05:05:08;;;;;;;2.88;2.47;;;11.60;74.70;;;;;;4985109;28;20057;-62
2023/03/19 05:07:34;;;;;;;4.53;2.65;;;11.60;74.90;;;;;;4983625;28;20073;-63
2023/03/19 05:09:59;;;;;;;5.07;3.00;;;11.60;75.10;;;;;;4984592;28;20034;-62
2023/03/19 05:12:25;;;;;;;4.30;2.80;;;11.60;75.40;;;;;;4978159;28;20038;-63
2023/03/19 05:14:51;;;;;;;3.80;2.80;;;11.60;75.60;;;;;;4980994;28;20034;-61
2023/03/19 05:17:17;;;;;;;3.17;2.88;;;11.60;75.90;;;;;;4984323;28;20577;-62
2023/03/19 05:19:43;;;;;;;4.25;3.10;;;11.60;75.90;;;;;;4985589;28;20149;-63
2023/03/19 05:22:09;;;;;;;7.72;5.25;;;11.60;76.70;;;;;;4981306;28;20045;-63
2023/03/19 05:24:35;;;;;;;6.10;3.53;;;11.60;76.10;;;;;;4983793;28;20046;-62
2023/03/19 05:27:01;;;;;;;5.82;3.55;;;11.60;76.20;;;;;;4986039;28;20061;-63
2023/03/19 05:29:27;;;;;;;3.47;3.10;;;11.60;76.40;;;;;;4982350;28;20041;-63
2023/03/19 05:31:53;;;;;;;3.72;2.88;;;11.60;76.30;;;;;;4983766;28;20034;-63
2023/03/19 05:34:18;;;;;;;3.10;2.60;;;11.60;76.30;;;;;;4986687;28;20030;-62
2023/03/19 05:36:44;;;;;;;5.88;3.58;;;11.50;76.30;;;;;;4984941;28;20273;-63
2023/03/19 05:39:09;;;;;;;3.90;2.97;;;11.50;76.30;;;;;;4980394;28;20046;-63
2023/03/19 05:41:35;;;;;;;5.75;4.07;;;11.50;76.40;;;;;;4983404;28;20101;-63
2023/03/19 05:44:01;;;;;;;6.40;5.40;;;11.50;76.30;;;;;;4982706;28;20039;-63
2023/03/19 05:46:26;;;;;;;26.50;15.43;;;11.50;76.50;;;;;;4982405;28;20042;-63
2023/03/19 05:48:52;;;;;;;23.65;15.93;;;11.50;76.40;;;;;;4982061;28;20035;-63
2023/03/19 05:51:18;;;;;;;14.60;9.43;;;11.50;76.50;;;;;;4983034;28;20450;-63
2023/03/19 05:53:43;;;;;;;6.93;5.60;;;11.50;76.50;;;;;;4983647;28;20034;-62
2023/03/19 05:56:09;;;;;;;7.10;5.10;;;11.50;76.60;;;;;;4984288;28;20038;-62
2023/03/19 05:58:35;;;;;;;5.25;4.45;;;11.50;76.70;;;;;;4982254;28;20132;-61
2023/03/19 06:01:01;;;;;;;5.22;3.80;;;11.50;76.80;;;;;;4980114;28;20165;-63
2023/03/19 06:03:27;;;;;;;5.03;3.63;;;11.50;76.80;;;;;;4986442;28;20038;-62
2023/03/19 06:05:52;;;;;;;3.58;3.25;;;11.50;76.80;;;;;;4983352;28;20045;-63
2023/03/19 06:08:18;;;;;;;5.40;3.20;;;11.50;76.80;;;;;;4984894;28;20038;-63
2023/03/19 06:10:44;;;;;;;3.00;2.80;;;11.50;76.80;;;;;;4982890;28;20038;-62
2023/03/19 06:13:10;;;;;;;7.03;5.00;;;11.60;77.20;;;;;;4979784;28;20771;-63
2023/03/19 06:15:36;;;;;;;5.85;3.47;;;11.60;77.10;;;;;;4983413;28;20030;-63
2023/03/19 06:18:02;;;;;;;3.72;2.88;;;11.60;77.10;;;;;;4984147;28;20034;-62
2023/03/19 06:20:27;;;;;;;6.28;3.58;;;11.60;77.00;;;;;;4982186;28;20034;-62
2023/03/19 06:22:53;;;;;;;3.58;3.13;;;11.60;77.20;;;;;;4983247;28;20382;-62
2023/03/19 06:25:19;;;;;;;4.15;2.70;;;11.60;77.20;;;;;;4980168;28;20042;-62
2023/03/19 06:27:44;;;;;;;3.30;2.72;;;11.50;77.20;;;;;;4981963;28;20540;-62
2023/03/19 06:30:11;;;;;;;3.90;2.72;;;11.60;77.20;;;;;;4981767;28;20062;-63
2023/03/19 06:32:37;;;;;;;5.72;3.17;;;11.60;77.20;;;;;;4980867;28;20672;-63
2023/03/19 06:35:03;;;;;;;6.07;2.95;;;11.60;77.10;;;;;;4982057;28;20089;-62
2023/03/19 06:37:29;;;;;;;5.32;3.08;;;11.60;77.00;;;;;;4982808;28;20457;-63
2023/03/19 06:39:55;;;;;;;3.42;3.00;;;11.60;76.60;;;;;;4983634;28;20026;-61
2023/03/19 06:42:21;;;;;;;4.78;3.00;;;11.70;76.50;;;;;;4984290;28;20129;-62
2023/03/19 06:44:47;;;;;;;3.55;2.88;;;11.70;76.20;;;;;;4981092;28;20406;-62
2023/03/19 06:47:13;;;;;;;4.82;2.40;;;11.70;76.20;;;;;;4984221;28;20509;-62
2023/03/19 06:49:39;;;;;;;4.85;2.58;;;11.60;75.70;;;;;;4980585;28;20045;-62
2023/03/19 06:52:05;;;;;;;4.05;2.60;;;11.70;75.60;;;;;;4983141;28;20092;-60
2023/03/19 06:54:30;;;;;;;4.57;3.08;;;11.70;75.80;;;;;;4983887;28;20052;-61
2023/03/19 06:56:56;;;;;;;4.15;3.35;;;11.60;75.70;;;;;;4982663;28;20057;-62
2023/03/19 06:59:22;;;;;;;3.60;2.80;;;11.70;75.80;;;;;;4980376;28;20034;-61
2023/03/19 07:01:48;;;;;;;6.47;3.38;;;11.70;75.60;;;;;;4981789;28;20070;-63
2023/03/19 07:04:13;;;;;;;6.15;4.40;;;11.70;75.60;;;;;;4980116;28;20049;-63
2023/03/19 07:06:39;;;;;;;6.53;3.50;;;11.70;75.40;;;;;;4980806;28;20081;-63
2023/03/19 07:09:04;;;;;;;4.65;2.70;;;11.70;75.40;;;;;;4979996;28;20038;-61
2023/03/19 07:11:30;;;;;;;4.97;3.40;;;11.70;75.40;;;;;;4977812;28;20411;-61
2023/03/19 07:13:56;;;;;;;5.55;3.10;;;11.80;75.40;;;;;;4981304;28;20052;-62
2023/03/19 07:16:21;;;;;;;3.88;3.00;;;11.80;75.30;;;;;;4982310;28;20038;-62
2023/03/19 07:18:47;;;;;;;10.13;6.57;;;11.80;75.10;;;;;;4979917;28;21465;-62
2023/03/19 07:21:12;;;;;;;16.83;10.18;;;11.80;75.10;;;;;;4979615;28;20116;-61
2023/03/19 07:23:39;;;;;;;20.13;12.80;;;11.80;75.10;;;;;;4980303;28;20035;-62
2023/03/19 07:26:04;;;;;;;17.27;11.80;;;11.90;75.20;;;;;;4980175;28;20034;-61
2023/03/19 07:28:30;;;;;;;10.05;6.65;;;11.90;75.10;;;;;;4981111;28;20037;-63
2023/03/19 07:30:56;;;;;;;10.48;6.45;;;11.90;74.90;;;;;;4979871;28;20525;-61
2023/03/19 07:33:21;;;;;;;10.25;6.45;;;11.90;74.90;;;;;;4980928;28;20568;-63
2023/03/19 07:35:47;;;;;;;10.52;6.22;;;11.90;75.90;;;;;;4980664;28;20044;-63
2023/03/19 07:38:13;;;;;;;9.02;5.13;;;12.00;74.90;;;;;;4980845;28;20332;-64
2023/03/19 07:40:39;;;;;;;5.95;3.95;;;12.00;75.10;;;;;;4981629;28;20514;-64
2023/03/19 07:43:05;;;;;;;5.88;3.53;;;12.00;74.90;;;;;;4980976;28;20042;-64
2023/03/19 07:45:31;;;;;;;5.03;3.30;;;12.00;75.20;;;;;;4981503;28;20529;-63
2023/03/19 07:47:56;;;;;;;9.15;5.00;;;12.10;75.50;;;;;;4978944;28;20129;-63
2023/03/19 07:50:22;;;;;;;9.60;5.45;;;12.10;75.10;;;;;;4980231;28;20026;-64
2023/03/19 07:52:50;;;;;;;7.68;3.72;;;12.10;75.10;;;;;;4978502;28;20033;-63
2023/03/19 07:55:16;;;;;;;3.90;2.60;;;12.20;74.90;;;;;;4979258;28;20039;-63
2023/03/19 07:57:42;;;;;;;5.55;2.60;;;12.20;74.70;;;;;;4982772;28;20046;-62
2023/03/19 08:00:09;;;;;;;3.63;2.25;;;12.20;74.70;;;;;;4980206;28;20396;-62
2023/03/19 08:02:35;;;;;;;3.78;2.25;;;12.30;74.70;;;;;;4974997;28;20030;-63
2023/03/19 08:05:03;;;;;;;3.53;2.08;;;12.30;74.70;;;;;;4981429;28;20046;-63
2023/03/19 08:07:29;;;;;;;3.75;2.13;;;12.40;74.60;;;;;;4971021;28;20057;-63
2023/03/19 08:09:56;;;;;;;3.88;1.90;;;12.40;74.30;;;;;;4968566;28;20636;-62
2023/03/19 08:12:23;;;;;;;3.95;2.40;;;12.40;74.30;;;;;;4971602;28;20793;-60
2023/03/19 08:14:48;;;;;;;3.30;2.28;;;12.50;74.40;;;;;;4974130;28;20413;-63
2023/03/19 08:17:14;;;;;;;3.28;2.10;;;12.50;74.10;;;;;;4970895;28;20062;-62
2023/03/19 08:19:40;;;;;;;2.20;2.00;;;12.60;74.00;;;;;;4970053;28;20057;-62
2023/03/19 08:22:06;;;;;;;3.55;2.45;;;12.60;73.90;;;;;;4974952;28;20030;-63
2023/03/19 08:24:32;;;;;;;4.07;2.20;;;12.70;73.70;;;;;;4972998;28;20157;-63
2023/03/19 08:26:58;;;;;;;2.83;2.00;;;12.70;73.50;;;;;;4975080;28;20489;-63
2023/03/19 08:29:26;;;;;;;3.13;2.25;;;12.70;73.50;;;;;;4975852;28;20043;-63
2023/03/19 08:31:55;;;;;;;4.55;2.67;;;12.80;73.40;;;;;;4978298;28;20042;-60
2023/03/19 08:34:21;;;;;;;3.88;2.70;;;12.80;73.40;;;;;;4972242;28;20038;-61
2023/03/19 08:36:47;;;;;;;3.47;2.90;;;12.80;73.50;;;;;;4966438;28;20121;-63
2023/03/19 08:39:13;;;;;;;5.03;2.45;;;12.90;73.50;;;;;;4975682;28;20114;-62
2023/03/19 08:41:39;;;;;;;4.20;3.75;;;12.90;73.30;;;;;;4971506;28;20041;-63
2023/03/19 08:44:04;;;;;;;3.22;2.40;;;13.00;73.20;;;;;;4976502;28;20030;-63
2023/03/19 08:46:30;;;;;;;3.47;2.20;;;13.00;73.20;;;;;;4970408;28;20680;-62
2023/03/19 08:48:56;;;;;;;1.48;1.38;;;13.00;73.80;;;;;;4969975;28;20581;-63
2023/03/19 08:51:24;;;;;;;2.70;1.50;;;13.00;72.60;;;;;;4974508;28;20039;-65
2023/03/19 08:53:50;;;;;;;2.22;1.60;;;13.10;72.60;;;;;;4977081;28;20072;-62
2023/03/19 08:56:15;;;;;;;1.92;1.35;;;13.10;72.30;;;;;;4982268;28;20070;-63
2023/03/19 08:58:41;;;;;;;3.05;1.80;;;13.10;72.20;;;;;;4983820;28;20038;-61
2023/03/19 09:01:10;;;;;;;2.78;1.50;;;13.20;73.20;;;;;;4981155;28;20417;-61
2023/03/19 09:03:36;;;;;;;3.33;1.70;;;13.20;72.10;;;;;;4981023;28;20035;-61
2023/03/19 09:06:04;;;;;;;2.30;1.60;;;13.30;72.00;;;;;;4984001;28;20038;-63
2023/03/19 09:08:30;;;;;;;2.22;1.60;;;13.30;71.70;;;;;;4980713;28;20042;-61
2023/03/19 09:10:57;;;;;;;3.92;1.80;;;13.40;71.70;;;;;;4979682;28;20049;-60
2023/03/19 09:13:23;;;;;;;2.10;1.73;;;13.40;71.40;;;;;;4979279;28;20502;-62
2023/03/19 09:15:49;;;;;;;2.97;1.80;;;13.40;71.10;;;;;;4982907;28;20736;-63
2023/03/19 09:18:15;;;;;;;2.00;1.80;;;13.50;70.60;;;;;;4979482;28;20054;-63
2023/03/19 09:20:41;;;;;;;2.72;1.83;;;13.50;70.50;;;;;;4982817;28;20035;-62
2023/03/19 09:23:07;;;;;;;2.20;2.00;;;13.60;70.60;;;;;;4996519;28;20142;-61
2023/03/19 09:25:33;;;;;;;2.13;1.63;;;13.60;70.70;;;;;;4981309;28;21319;-62
2023/03/19 09:27:58;;;;;;;2.30;1.80;;;13.60;70.70;;;;;;4977658;28;20050;-62
2023/03/19 09:30:24;;;;;;;2.55;1.92;;;13.60;70.70;;;;;;4981029;28;20046;-62
2023/03/19 09:32:50;;;;;;;4.05;1.85;;;13.70;70.50;;;;;;4981703;28;20114;-63
2023/03/19 09:35:15;;;;;;;2.45;1.77;;;13.70;70.10;;;;;;4984278;28;20077;-63
2023/03/19 09:37:41;;;;;;;4.30;2.90;;;13.80;70.20;;;;;;4984901;28;20054;-63
2023/03/19 09:40:18;;;;;;;4.72;3.17;;;13.80;70.00;;;;;;4984901;28;20046;-62
2023/03/19 09:42:54;;;;;;;4.35;2.42;;;13.90;69.90;;;;;;4986228;28;20038;-63
2023/03/19 09:45:21;;;;;;;3.65;2.30;;;14.00;69.30;;;;;;4980810;28;20063;-63
2023/03/19 09:47:54;;;;;;;4.38;2.53;;;14.10;69.00;;;;;;4980717;28;20041;-63
2023/03/19 09:50:23;;;;;;;12.63;6.70;;;14.10;68.60;;;;;;4981250;28;20034;-62
2023/03/19 09:53:22;;;;;;;4.13;2.42;;;14.20;68.60;;;;;;4980939;28;20038;-63
2023/03/19 09:55:51;;;;;;;3.78;2.28;;;14.30;67.30;;;;;;4981728;28;20398;-61
2023/03/19 09:58:31;;;;;;;2.85;2.22;;;14.30;67.40;;;;;;4981267;28;20101;-63
2023/03/19 10:00:57;;;;;;;4.00;2.50;;;14.50;66.90;;;;;;4980230;28;20413;-61
2023/03/19 10:03:29;;;;;;;4.40;2.10;;;14.50;67.30;;;;;;4979543;28;20030;-62
2023/03/19 10:06:26;;;;;;;2.55;2.13;;;14.60;66.80;;;;;;4975518;28;20049;-63
2023/03/19 10:09:10;;;;;;;2.90;2.20;;;14.70;66.00;;;;;;4980363;28;20042;-63
2023/03/19 10:11:56;;;;;;;3.42;1.40;;;14.80;65.70;;;;;;4982941;28;20031;-62
2023/03/19 10:14:40;;;;;;;2.53;1.90;;;14.90;66.10;;;;;;4979157;28;20517;-63
2023/03/19 10:17:14;;;;;;;2.42;1.60;;;15.00;64.30;;;;;;4980838;28;20042;-62
2023/03/19 10:19:57;;;;;;;3.47;2.03;;;15.00;64.20;;;;;;4981958;28;20513;-63
2023/03/19 10:22:39;;;;;;;3.70;2.00;;;15.10;64.00;;;;;;4959811;28;20041;-61
2023/03/19 10:25:12;;;;;;;3.08;1.80;;;15.20;63.70;;;;;;4978839;28;20113;-61
2023/03/19 10:27:39;;;;;;;2.78;1.70;;;15.30;63.90;;;;;;4984184;28;20324;-62
2023/03/19 10:30:23;;;;;;;3.30;1.90;;;15.30;63.40;;;;;;4980621;28;20070;-62
2023/03/19 10:33:00;;;;;;;3.88;2.20;;;15.40;62.40;;;;;;4976601;28;20066;-62
2023/03/19 10:35:50;;;;;;;2.25;1.88;;;15.40;62.60;;;;;;4979309;28;20125;-62
2023/03/19 10:38:20;;;;;;;2.30;1.60;;;15.40;61.70;;;;;;4979714;28;20416;-62
2023/03/19 10:41:02;;;;;;;2.83;1.55;;;15.50;62.40;;;;;;4979818;28;20042;-63
2023/03/19 10:43:29;;;;;;;4.35;1.67;;;15.50;61.50;;;;;;4981890;28;20536;-62
2023/03/19 10:45:56;;;;;;;3.05;1.60;;;15.50;61.70;;;;;;4980518;28;20426;-62
2023/03/19 10:48:24;;;;;;;4.18;1.38;;;15.60;61.30;;;;;;4977467;28;20132;-61
2023/03/19 10:50:58;;;;;;;2.25;1.73;;;15.50;60.50;;;;;;4974430;28;20027;-61
2023/03/19 10:53:32;;;;;;;4.25;1.45;;;15.50;60.60;;;;;;4981549;28;20544;-62
2023/03/19 10:56:02;;;;;;;2.38;1.20;;;15.60;59.50;;;;;;4981112;28;20118;-63
2023/03/19 10:58:30;;;;;;;2.97;1.50;;;15.70;59.90;;;;;;4981159;28;20038;-59
2023/03/19 11:01:09;;;;;;;1.60;1.13;;;15.70;60.10;;;;;;4983790;28;20030;-62
2023/03/19 11:03:48;;;;;;;3.08;1.30;;;15.70;59.40;;;;;;4988546;28;20295;-60
2023/03/19 11:06:36;;;;;;;1.70;1.30;;;15.80;59.70;;;;;;4987774;28;20105;-62
2023/03/19 11:09:08;;;;;;;2.70;1.20;;;15.80;59.80;;;;;;4985398;28;20129;-61
2023/03/19 11:11:46;;;;;;;1.60;1.20;;;15.90;60.00;;;;;;4986827;28;20039;-63
2023/03/19 11:14:24;;;;;;;3.15;1.40;;;16.00;59.80;;;;;;4986046;28;20042;-62
2023/03/19 11:17:01;;;;;;;2.03;1.27;;;16.00;60.20;;;;;;4985658;28;20038;-61
2023/03/19 11:19:31;;;;;;;2.05;1.20;;;16.10;59.50;;;;;;4986097;28;20038;-60
2023/03/19 11:22:08;;;;;;;2.08;1.15;;;16.10;59.50;;;;;;4985397;28;20034;-62
2023/03/19 11:24:39;;;;;;;2.88;1.40;;;16.20;59.10;;;;;;4986676;28;20046;-62
2023/03/19 11:27:08;;;;;;;1.70;1.20;;;16.20;59.00;;;;;;4987016;28;20034;-62
2023/03/19 11:29:39;;;;;;;4.40;1.50;;;16.30;59.40;;;;;;4985822;28;20030;-62
2023/03/19 11:32:36;;;;;;;1.77;1.42;;;16.30;59.10;;;;;;4987109;28;20043;-61
2023/03/19 11:35:11;;;;;;;3.80;1.38;;;16.40;58.40;;;;;;4986986;28;20068;-62
2023/03/19 11:37:56;;;;;;;3.75;1.88;;;16.40;58.80;;;;;;4983124;28;20046;-62
2023/03/19 11:40:36;;;;;;;1.83;1.33;;;16.50;59.10;;;;;;4983767;28;20038;-61
2023/03/19 11:43:37;;;;;;;2.92;1.45;;;16.50;58.40;;;;;;4984125;28;20570;-62
2023/03/19 11:46:30;;;;;;;2.85;1.98;;;16.50;57.70;;;;;;4983826;28;20087;-63
2023/03/19 11:49:16;;;;;;;2.35;1.80;;;16.50;57.20;;;;;;4966170;28;20039;-62
2023/03/19 11:51:49;;;;;;;3.05;1.80;;;16.60;57.30;;;;;;4985059;28;20069;-61
2023/03/19 11:54:33;;;;;;;2.05;1.75;;;16.60;57.20;;;;;;4986284;28;20434;-61
2023/03/19 11:57:20;;;;;;;2.15;1.40;;;16.60;56.40;;;;;;4983669;28;20043;-63
2023/03/19 11:59:45;;;;;;;5.65;1.80;;;16.70;56.50;;;;;;4980270;28;20060;-63
2023/03/19 12:02:32;;;;;;;2.20;1.70;;;16.70;57.30;;;;;;4982877;28;20628;-62
2023/03/19 12:05:25;;;;;;;1.70;1.55;;;16.80;56.20;;;;;;4986876;28;20042;-63
2023/03/19 12:08:16;;;;;;;3.60;1.75;;;16.80;57.20;;;;;;4983737;28;20034;-62
2023/03/19 12:11:01;;;;;;;2.60;1.63;;;16.80;56.40;;;;;;4983248;28;20094;-63
2023/03/19 12:13:58;;;;;;;2.33;1.98;;;16.80;56.00;;;;;;4981569;28;20034;-62
2023/03/19 12:16:56;;;;;;;1.83;1.70;;;16.80;56.30;;;;;;4978281;28;20405;-61
2023/03/19 12:19:45;;;;;;;3.22;1.67;;;16.80;56.00;;;;;;4985457;28;20038;-63
2023/03/19 12:22:41;;;;;;;2.17;1.70;;;16.90;56.90;;;;;;4984985;28;20112;-60
2023/03/19 12:25:29;;;;;;;2.20;1.70;;;16.90;56.60;;;;;;4984670;28;20126;-62
2023/03/19 12:28:16;;;;;;;3.22;1.60;;;17.00;56.60;;;;;;4986920;28;20050;-62
2023/03/19 12:30:48;;;;;;;2.83;2.00;;;17.00;56.90;;;;;;4988771;28;20125;-61
2023/03/19 12:33:13;;;;;;;3.15;1.70;;;17.10;56.10;;;;;;4988275;28;20121;-62
2023/03/19 12:35:40;;;;;;;3.17;1.70;;;17.10;56.50;;;;;;4989753;28;20129;-61
2023/03/19 12:38:26;;;;;;;2.28;1.52;;;17.10;56.40;;;;;;4988745;28;20041;-62
2023/03/19 12:41:00;;;;;;;2.92;2.25;;;17.10;55.90;;;;;;4988094;28;20402;-62
2023/03/19 12:43:38;;;;;;;2.60;1.90;;;17.10;55.70;;;;;;4990146;28;20116;-62
2023/03/19 12:46:40;;;;;;;2.97;1.80;;;17.10;55.80;;;;;;4989020;28;20073;-61
2023/03/19 12:49:24;;;;;;;2.92;2.10;;;17.00;55.50;;;;;;4975002;28;20084;-60
2023/03/19 12:51:55;;;;;;;1.92;1.80;;;17.00;54.80;;;;;;4988292;28;20038;-62
2023/03/19 12:54:41;;;;;;;2.80;1.75;;;17.00;56.00;;;;;;4989537;28;20045;-62
2023/03/19 12:57:14;;;;;;;2.97;1.90;;;17.00;55.90;;;;;;4989392;28;20828;-61